createdAt,value
2022-08-19T00:29:11.886Z,31.02
2022-08-19T00:34:25.176Z,30.93
2022-08-19T00:37:02.525Z,31.85
2022-08-19T01:01:15.742Z,29.20
2022-08-19T01:10:41.530Z,27.95
2022-08-19T01:13:24.012Z,27.75
2022-08-19T01:16:02.437Z,27.13
2022-08-19T01:24:24.679Z,25.88
2022-08-19T01:26:55.405Z,27.30
2022-08-19T01:31:57.612Z,26.57
2022-08-19T01:34:28.369Z,24.08
2022-08-19T01:43:16.516Z,24.45
2022-08-19T01:46:05.723Z,24.75
2022-08-19T01:48:40.452Z,24.95
2022-08-19T01:54:26.993Z,22.33
2022-08-19T01:57:03.092Z,23.23
2022-08-19T02:05:37.452Z,21.93
2022-08-19T02:08:09.512Z,22.17
2022-08-19T02:13:28.312Z,22.80
2022-08-19T02:15:56.727Z,20.92
2022-08-19T02:21:14.914Z,19.42
2022-08-19T02:26:22.818Z,19.87
2022-08-19T02:29:00.185Z,19.48
2022-08-19T02:36:45.892Z,20.20
2022-08-19T02:55:49.316Z,15.67
2022-08-19T03:03:47.281Z,16.65
2022-08-19T03:12:34.353Z,15.40
2022-08-19T03:17:41.131Z,16.17
2022-08-19T03:20:14.108Z,16.90
2022-08-19T03:22:41.471Z,17.33
2022-08-19T03:25:12.951Z,15.25
2022-08-19T03:33:18.108Z,15.95
2022-08-19T03:36:29.710Z,16.03
2022-08-19T03:39:05.055Z,14.82
2022-08-19T03:48:40.595Z,15.73
2022-08-19T03:51:31.143Z,14.90
2022-08-19T04:02:27.335Z,15.45
2022-08-19T04:08:27.797Z,13.38
2022-08-19T04:10:58.720Z,13.40
2022-08-19T04:13:30.594Z,13.57
2022-08-19T04:16:02.543Z,13.82
2022-08-19T04:31:29.281Z,12.80
2022-08-19T04:34:24.938Z,13.05
2022-08-19T04:40:10.095Z,12.75
2022-08-19T06:48:51.275Z,7.40
2022-08-19T06:51:25.197Z,7.22
2022-08-19T06:53:55.925Z,5.68
2022-08-19T07:07:57.552Z,4.07
2022-08-19T07:10:26.942Z,3.30
2022-08-19T07:12:55.454Z,3.47
2022-08-19T07:15:25.328Z,3.00
2022-08-19T07:20:49.817Z,2.17
2022-08-19T07:26:27.954Z,2.25
2022-08-19T07:28:57.446Z,2.00
2022-08-19T07:31:28.268Z,1.90
2022-08-19T07:34:10.367Z,2.00
2022-08-19T07:36:43.558Z,2.42
2022-08-19T07:39:17.825Z,1.90
2022-08-19T07:41:47.840Z,2.03
2022-08-19T07:44:18.424Z,2.10
2022-08-19T07:46:54.127Z,2.40
2022-08-19T07:49:23.462Z,2.25
2022-08-19T07:52:02.557Z,2.10
2022-08-19T08:03:44.572Z,1.60
2022-08-19T08:06:37.798Z,1.73
2022-08-19T08:09:16.396Z,1.57
2022-08-19T08:14:38.570Z,1.60
2022-08-19T08:17:12.739Z,1.75
2022-08-19T08:22:42.099Z,1.47
2022-08-19T08:25:20.519Z,1.60
2022-08-19T08:27:49.694Z,1.70
2022-08-19T08:30:24.761Z,1.40
2022-08-19T08:32:53.496Z,1.70
2022-08-19T08:35:24.902Z,1.27
2022-08-19T08:37:57.396Z,1.58
2022-08-19T08:40:44.230Z,1.70
2022-08-19T08:49:11.431Z,1.80
2022-08-19T08:52:40.075Z,1.90
2022-08-19T08:55:21.309Z,1.70
2022-08-19T09:00:53.693Z,1.60
2022-08-19T09:03:27.844Z,1.27
2022-08-19T09:08:56.812Z,2.08
2022-08-19T09:12:07.212Z,1.58
2022-08-19T09:14:55.042Z,1.58
2022-08-19T09:17:31.584Z,1.73
2022-08-19T09:20:34.045Z,1.27
2022-08-19T09:25:51.382Z,1.48
2022-08-19T09:28:22.410Z,1.88
2022-08-19T09:30:56.705Z,1.60
2022-08-19T09:33:28.422Z,1.52
2022-08-19T09:36:34.691Z,1.35
2022-08-19T09:39:16.177Z,1.60
2022-08-19T09:41:49.158Z,1.83
2022-08-19T09:44:18.252Z,1.60
2022-08-19T09:46:48.482Z,1.60
2022-08-19T09:49:24.443Z,1.75
2022-08-19T09:51:56.189Z,2.08
2022-08-19T09:54:25.156Z,2.08
2022-08-19T09:56:57.298Z,1.50
2022-08-19T09:59:25.556Z,1.90
2022-08-19T10:01:53.784Z,1.70
2022-08-19T10:04:23.046Z,1.92
2022-08-19T10:06:57.371Z,1.65
2022-08-19T10:09:33.734Z,1.53
2022-08-19T10:12:04.902Z,1.52
2022-08-19T10:14:36.516Z,1.52
2022-08-19T10:17:19.329Z,1.58
2022-08-19T10:22:55.962Z,1.60
2022-08-19T10:35:00.724Z,1.30
2022-08-19T10:37:29.042Z,1.27
2022-08-19T10:40:00.085Z,1.13
2022-08-19T10:42:27.931Z,1.55
2022-08-19T10:47:42.564Z,1.67
2022-08-19T10:50:29.085Z,1.20
2022-08-19T10:53:09.773Z,1.30
2022-08-19T11:03:00.373Z,1.20
2022-08-19T11:05:36.470Z,1.10
2022-08-19T11:08:23.115Z,1.20
2022-08-19T11:11:00.940Z,1.27
2022-08-19T11:13:35.042Z,1.55
2022-08-19T11:16:07.982Z,1.10
2022-08-19T11:18:40.917Z,1.13
2022-08-19T11:21:23.883Z,1.20
2022-08-19T11:23:53.795Z,1.23
2022-08-19T11:26:23.324Z,1.00
2022-08-19T11:29:01.977Z,1.50
2022-08-19T11:31:36.396Z,1.80
2022-08-19T11:34:10.842Z,1.90
2022-08-19T11:36:41.036Z,2.00
2022-08-19T11:39:11.629Z,1.25
2022-08-19T11:41:39.596Z,1.20
2022-08-19T11:44:08.942Z,1.40
2022-08-19T11:46:38.048Z,1.10
2022-08-19T11:49:13.828Z,1.75
2022-08-19T11:52:03.163Z,1.17
2022-08-19T11:54:32.259Z,1.17
2022-08-19T11:57:19.255Z,1.27
2022-08-19T11:59:57.405Z,1.02
2022-08-19T12:05:07.917Z,1.27
2022-08-19T12:07:37.648Z,1.08
2022-08-19T12:10:06.236Z,1.30
2022-08-19T12:12:33.710Z,1.20
2022-08-19T12:15:01.477Z,1.30
2022-08-19T12:20:10.521Z,1.40
2022-08-19T12:22:39.139Z,1.20
2022-08-19T12:25:07.878Z,1.10
2022-08-19T12:27:40.883Z,1.50
2022-08-19T12:31:08.639Z,1.23
2022-08-19T12:33:36.005Z,1.30
2022-08-19T12:36:06.753Z,1.20
2022-08-19T12:38:36.208Z,1.15
2022-08-19T12:41:07.458Z,1.75
2022-08-19T12:46:28.529Z,1.42
2022-08-19T12:48:58.524Z,1.50
2022-08-19T12:51:28.487Z,1.40
2022-08-19T12:53:56.374Z,1.42
2022-08-19T12:56:35.295Z,1.40
2022-08-19T12:59:04.890Z,1.45
2022-08-19T13:01:34.193Z,1.17
2022-08-19T13:04:02.162Z,1.30
2022-08-19T13:07:02.213Z,1.40
2022-08-19T13:14:06.738Z,1.50
2022-08-19T13:16:34.763Z,1.47
2022-08-19T13:19:25.957Z,1.25
2022-08-19T13:24:42.858Z,1.10
2022-08-19T13:30:07.658Z,1.30
2022-08-19T13:33:02.608Z,1.60
2022-08-19T13:35:31.457Z,1.33
2022-08-19T13:37:59.236Z,1.52
2022-08-19T13:43:03.557Z,1.13
2022-08-19T13:45:57.238Z,1.75
2022-08-19T13:48:28.088Z,1.60
2022-08-19T13:50:57.102Z,1.67
2022-08-19T13:53:24.995Z,1.70
2022-08-19T13:55:53.431Z,1.40
2022-08-19T13:58:20.856Z,1.45
2022-08-19T14:01:00.620Z,1.73
2022-08-19T14:03:36.702Z,1.42
2022-08-19T14:06:05.055Z,1.50
2022-08-19T14:08:46.202Z,1.70
2022-08-19T14:11:27.591Z,1.50
2022-08-19T14:13:57.460Z,1.40
2022-08-19T14:16:25.830Z,1.60
2022-08-19T14:18:55.664Z,1.65
2022-08-19T14:21:31.652Z,1.77
2022-08-19T14:24:05.052Z,1.40
2022-08-19T14:32:28.176Z,1.90
2022-08-19T14:34:56.127Z,1.60
2022-08-19T14:37:25.013Z,1.80
2022-08-19T14:39:54.121Z,1.50
2022-08-19T14:42:22.623Z,1.77
2022-08-19T14:44:50.833Z,1.80
2022-08-19T14:47:18.653Z,1.77
2022-08-19T14:54:00.310Z,1.80
2022-08-19T14:56:40.905Z,1.70
2022-08-19T14:59:10.184Z,1.90
2022-08-19T15:01:39.316Z,1.70
2022-08-19T15:04:07.162Z,1.70
2022-08-19T15:06:37.958Z,1.70
2022-08-19T15:09:07.962Z,1.48
2022-08-19T15:11:47.439Z,2.30
2022-08-19T15:42:30.111Z,2.38
2022-08-19T15:45:10.014Z,2.17
2022-08-19T15:54:16.891Z,2.30
2022-08-19T16:51:22.992Z,2.30
2022-08-19T16:54:43.486Z,2.20
2022-08-19T18:02:53.181Z,2.50
2022-08-19T18:05:26.144Z,2.50
2022-08-19T18:07:54.494Z,2.50
2022-08-19T18:10:24.049Z,2.42
2022-08-19T18:13:02.463Z,2.53
2022-08-19T18:15:51.805Z,2.20
2022-08-19T18:18:19.321Z,2.60
2022-08-19T18:20:47.478Z,2.45
2022-08-19T18:25:48.590Z,2.38
2022-08-19T18:28:16.132Z,2.05
2022-08-19T18:30:46.457Z,2.20
2022-08-19T18:33:17.009Z,2.20
2022-08-19T18:35:49.750Z,2.20
2022-08-19T18:38:37.967Z,2.20
2022-08-19T18:41:29.015Z,2.03
2022-08-19T18:44:15.292Z,1.93
2022-08-19T18:47:01.759Z,2.17
2022-08-19T18:49:31.698Z,2.25
2022-08-19T18:52:04.729Z,2.38
2022-08-19T18:54:33.482Z,2.63
2022-08-19T18:57:01.179Z,1.90
2022-08-19T18:59:31.380Z,2.28
2022-08-19T19:02:01.075Z,2.30
2022-08-19T19:04:37.535Z,2.25
2022-08-19T19:07:06.743Z,2.00
2022-08-19T19:09:35.290Z,2.40
2022-08-19T19:12:05.143Z,1.95
2022-08-19T19:17:27.300Z,2.60
2022-08-19T19:19:54.610Z,2.38
2022-08-19T19:22:24.891Z,2.70
2022-08-19T19:27:31.732Z,2.33
2022-08-19T19:33:50.788Z,2.28
2022-08-19T19:39:54.241Z,1.90
2022-08-19T19:42:23.912Z,2.22
2022-08-19T19:45:00.989Z,2.10
2022-08-19T19:50:34.636Z,2.10
2022-08-19T19:53:01.965Z,2.17
2022-08-19T19:55:29.448Z,2.17
2022-08-19T19:57:58.437Z,2.28
2022-08-19T20:00:26.797Z,2.53
2022-08-19T20:02:56.178Z,2.13
2022-08-19T20:05:59.823Z,2.00
2022-08-19T20:09:06.913Z,2.00
2022-08-19T20:11:36.395Z,2.22
2022-08-19T20:14:11.845Z,2.22
2022-08-19T20:16:44.443Z,2.30
2022-08-19T20:19:14.113Z,2.20
2022-08-19T20:21:48.532Z,2.13
2022-08-19T20:24:26.334Z,2.30
2022-08-19T20:26:55.348Z,2.15
2022-08-19T20:29:38.848Z,1.80
2022-08-19T20:32:10.809Z,2.00
2022-08-19T20:34:42.731Z,2.25
2022-08-19T20:37:13.876Z,1.90
2022-08-19T20:39:41.510Z,2.10
2022-08-19T20:42:10.018Z,1.80
2022-08-19T20:44:39.197Z,2.08
2022-08-19T20:47:12.372Z,2.22
2022-08-19T20:49:41.642Z,2.03
2022-08-19T20:52:12.248Z,1.90
2022-08-19T20:57:15.361Z,2.10
2022-08-19T20:59:43.411Z,1.80
2022-08-19T21:02:11.838Z,2.00
2022-08-19T21:04:39.107Z,2.35
2022-08-19T21:07:08.197Z,1.87
2022-08-19T21:09:37.080Z,1.70
2022-08-19T21:12:06.320Z,2.05
2022-08-19T21:14:34.490Z,2.30
2022-08-19T21:17:03.305Z,2.10
2022-08-19T21:19:37.856Z,1.90
2022-08-19T21:22:07.445Z,2.38
2022-08-19T21:24:35.443Z,2.00
2022-08-19T21:27:03.850Z,2.05
2022-08-19T21:29:37.884Z,2.00
2022-08-19T21:32:08.094Z,2.13
2022-08-19T21:40:31.970Z,2.13
2022-08-19T21:42:59.496Z,2.33
2022-08-19T21:45:27.398Z,2.10
2022-08-19T21:47:55.046Z,2.05
2022-08-19T21:50:25.775Z,1.83
2022-08-19T21:52:55.740Z,2.20
2022-08-19T21:58:04.863Z,2.20
2022-08-19T22:00:34.956Z,2.30
2022-08-19T22:03:13.704Z,2.25
2022-08-19T22:05:50.430Z,2.15
2022-08-19T22:08:25.758Z,2.00
2022-08-19T22:13:39.758Z,1.75
2022-08-19T22:16:52.323Z,2.13
2022-08-19T22:19:20.013Z,2.30
2022-08-19T22:21:48.083Z,2.50
2022-08-19T22:24:15.549Z,2.17
2022-08-19T22:26:42.977Z,2.05
2022-08-19T22:29:11.469Z,1.75
2022-08-19T22:31:54.363Z,2.00
2022-08-19T22:34:24.434Z,2.53
2022-08-19T22:36:52.368Z,1.83
2022-08-19T22:39:20.656Z,2.08
2022-08-19T22:41:50.669Z,1.95
2022-08-19T22:44:20.222Z,1.90
2022-08-19T22:46:48.351Z,2.40
2022-08-19T22:49:16.249Z,2.10
2022-08-19T22:52:02.722Z,2.00
2022-08-19T22:54:30.784Z,2.33
2022-08-19T22:56:58.039Z,2.15
2022-08-19T23:00:13.494Z,2.50
2022-08-19T23:02:51.751Z,2.10
2022-08-19T23:05:22.257Z,2.17
2022-08-19T23:07:52.725Z,2.67
2022-08-19T23:10:26.759Z,2.10
2022-08-19T23:12:58.164Z,2.03
2022-08-19T23:15:29.918Z,2.20
2022-08-19T23:18:02.419Z,2.10
2022-08-19T23:20:34.155Z,2.53
2022-08-19T23:23:05.891Z,2.20
2022-08-19T23:25:35.806Z,2.08
2022-08-19T23:28:23.270Z,2.07
2022-08-19T23:30:52.374Z,2.15
2022-08-19T23:34:07.650Z,2.38
2022-08-19T23:40:04.444Z,2.40
2022-08-19T23:59:17.609Z,2.40
